Plato — 8PRX — position and weather

sailwx.info

Track history (hours):
 
Tides and Currents Weather Stations Pressure Air Temp Water Temp Dewpoint Dewpoint Depression Visibility Wind Speed Wind Dir Waves Ship Positions

Plato

Last reported at 2016-May-03 06:29 UTC. Time now 2016-May-03 06:55 UTC.
Position N 52°24' E 004°52'.

Length 89 m; draft 3.1 m.

Type: Cargo ship. MMSI: 314189000.

Date/timePositionNaut miles runAvg speedWind from/ knotsBaromVisibWave heightAir tempDewpointWater temp
2016-May-03 06:29N 52°24' E 004°52'0 0.0
2016-May-03 05:26N 52°24' E 004°52'0 0.0
2016-May-03 04:26N 52°24' E 004°52'0 0.0
2016-May-03 03:32N 52°24' E 004°52'0 0.0
2016-May-03 02:32N 52°24' E 004°52'0 0.0
2016-May-03 01:29N 52°24' E 004°52'0 0.0
2016-May-03 00:32N 52°24' E 004°52'0 0.0
2016-May-02 23:32N 52°24' E 004°52'0 0.0
2016-May-02 22:32N 52°24' E 004°52'0 0.0
2016-May-02 21:32N 52°24' E 004°52'0 0.0
2016-May-02 20:32N 52°24' E 004°52'0 0.0
2016-May-02 19:32N 52°24' E 004°52'0 0.0
2016-May-02 18:32N 52°24' E 004°52'0 0.0
2016-May-02 17:32N 52°24' E 004°52'0 0.0
2016-May-02 16:32N 52°24' E 004°52'0 0.0
2016-May-02 15:32N 52°24' E 004°52'0 0.0
2016-May-02 14:29N 52°24' E 004°52'0 0.0
2016-May-02 13:26N 52°24' E 004°52'0 0.0
2016-May-02 12:29N 52°24' E 004°52'0 0.0
2016-May-02 11:28N 52°24' E 004°52'0 0.0
2016-May-02 10:25N 52°24' E 004°52'0 0.0
2016-May-02 09:31N 52°24' E 004°52'0 0.0
2016-May-02 08:31N 52°24' E 004°52'0 0.0
2016-May-02 07:28N 52°24' E 004°52'0 0.0
2016-May-02 06:31N 52°24' E 004°52'0 0.0
2016-May-02 05:28N 52°24' E 004°52'0 0.0
2016-May-02 04:28N 52°24' E 004°52'0 0.0
2016-May-02 03:31N 52°24' E 004°52'0 0.0
2016-May-02 02:28N 52°24' E 004°52'0 0.0
2016-May-02 01:31N 52°24' E 004°52'0 0.0
2016-May-02 00:31N 52°24' E 004°52'0 0.0
2016-May-01 23:31N 52°24' E 004°52'0 0.0
2016-May-01 22:28N 52°24' E 004°52'0 0.0
2016-May-01 21:31N 52°24' E 004°52'0 0.0
2016-May-01 20:28N 52°24' E 004°52'0 0.0
2016-May-01 19:28N 52°24' E 004°52'0 0.0
2016-May-01 18:31N 52°24' E 004°52'0 0.0
2016-May-01 17:31N 52°24' E 004°52'0 0.0
2016-May-01 16:31N 52°24' E 004°52'0 0.0
2016-May-01 15:28N 52°24' E 004°52'0 0.0
2016-May-01 14:28N 52°24' E 004°52'0 0.0
2016-May-01 13:28N 52°24' E 004°52'0 0.0
2016-May-01 12:31N 52°24' E 004°52'0 0.0
2016-May-01 11:31N 52°24' E 004°52'0 0.0
2016-May-01 10:31N 52°24' E 004°52'0 0.0
2016-May-01 09:28N 52°24' E 004°52'0 0.0
2016-May-01 08:28N 52°24' E 004°52'0 0.0
2016-May-01 07:31N 52°24' E 004°52'0 0.0
2016-May-01 06:31N 52°24' E 004°52'0 0.0
2016-May-01 05:28N 52°24' E 004°52'0 0.0
2016-May-01 04:31N 52°24' E 004°52'0 0.0
2016-May-01 03:25N 52°24' E 004°52'0 0.0
2016-May-01 02:31N 52°24' E 004°52'0 0.0
2016-May-01 01:25N 52°24' E 004°52'0 0.0
2016-May-01 00:31N 52°24' E 004°52'0 0.0
2016-Apr-30 23:31N 52°24' E 004°52'0 0.0
2016-Apr-30 22:31N 52°24' E 004°52'0 0.0
2016-Apr-30 21:31N 52°24' E 004°52'0 0.0
2016-Apr-30 20:31N 52°24' E 004°52'0 0.0
2016-Apr-30 19:31N 52°24' E 004°52'0 0.0
2016-Apr-30 18:31N 52°24' E 004°52'0 0.0
2016-Apr-30 17:31N 52°24' E 004°52'0 0.0
2016-Apr-30 16:31N 52°24' E 004°52'0 0.0
2016-Apr-30 15:32N 52°24' E 004°52'0 0.0
2016-Apr-30 14:31N 52°24' E 004°52'1 0.6
2016-Apr-30 13:33N 52°25' E 004°52'9 8.7
2016-Apr-30 12:34N 52°28' E 004°39'4 3.7
2016-Apr-30 11:33N 52°28' E 004°33'6 6.2
2016-Apr-30 10:32N 52°28' E 004°22'67 6.5
2016-Apr-30 00:19N 51°30' E 003°27'7 8.7
2016-Apr-29 23:33N 51°26' E 003°36'1110.3
2016-Apr-29 22:32N 51°22' E 003°51'8 8.1
2016-Apr-29 21:31N 51°24' E 004°04'9 9.0
2016-Apr-29 20:33N 51°20' E 004°16'7 7.4
2016-Apr-29 19:33N 51°14' E 004°23'6 5.9
2016-Apr-29 18:32N 51°09' E 004°20'3 2.8
2016-Apr-29 17:33N 51°06' E 004°19'2 0.1
2016-Apr-28 20:33N 51°05' E 004°21'3 2.6
2016-Apr-28 19:19N 51°07' E 004°19'6 7.5
2016-Apr-28 18:34N 51°12' E 004°23'8 7.5
2016-Apr-28 17:31N 51°19' E 004°16'10 8.7
2016-Apr-28 16:20N 51°25' E 004°03'810.0
2016-Apr-28 15:33N 51°21' E 003°52'1111.1
2016-Apr-28 14:33N 51°26' E 003°36'  
2016-Apr-26 10:25N 58°36' E 005°15'7 8.4
2016-Apr-26 09:34N 58°43' E 005°15'9 8.9
2016-Apr-26 08:34N 58°52' E 005°17'9 9.3
2016-Apr-26 07:34N 59°02' E 005°18'9 9.3
2016-Apr-26 06:33N 59°11' E 005°20'28 9.3
2016-Apr-26 03:33N 59°39' E 005°19'1111.1
2016-Apr-26 02:33N 59°47' E 005°34'  
Track history (hours):
 
Tides and Currents Weather Stations Pressure Air Temp Water Temp Dewpoint Dewpoint Depression Visibility Wind Speed Wind Dir Waves Ship Positions

Plato

Last reported at 2016-May-03 06:29 UTC. Time now 2016-May-03 06:55 UTC.
Position N 52°24' E 004°52'.

Length 89 m; draft 3.1 m.

Type: Cargo ship. MMSI: 314189000.

Date/timePositionNaut miles runAvg speedWind from/ knotsBaromVisibWave heightAir tempDewpointWater temp
2016-May-03 06:29N 52°24' E 004°52'0 0.0
2016-May-03 05:26N 52°24' E 004°52'0 0.0
2016-May-03 04:26N 52°24' E 004°52'0 0.0
2016-May-03 03:32N 52°24' E 004°52'0 0.0
2016-May-03 02:32N 52°24' E 004°52'0 0.0
2016-May-03 01:29N 52°24' E 004°52'0 0.0
2016-May-03 00:32N 52°24' E 004°52'0 0.0
2016-May-02 23:32N 52°24' E 004°52'0 0.0
2016-May-02 22:32N 52°24' E 004°52'0 0.0
2016-May-02 21:32N 52°24' E 004°52'0 0.0
2016-May-02 20:32N 52°24' E 004°52'0 0.0
2016-May-02 19:32N 52°24' E 004°52'0 0.0
2016-May-02 18:32N 52°24' E 004°52'0 0.0
2016-May-02 17:32N 52°24' E 004°52'0 0.0
2016-May-02 16:32N 52°24' E 004°52'0 0.0
2016-May-02 15:32N 52°24' E 004°52'0 0.0
2016-May-02 14:29N 52°24' E 004°52'0 0.0
2016-May-02 13:26N 52°24' E 004°52'0 0.0
2016-May-02 12:29N 52°24' E 004°52'0 0.0
2016-May-02 11:28N 52°24' E 004°52'0 0.0
2016-May-02 10:25N 52°24' E 004°52'0 0.0
2016-May-02 09:31N 52°24' E 004°52'0 0.0
2016-May-02 08:31N 52°24' E 004°52'0 0.0
2016-May-02 07:28N 52°24' E 004°52'0 0.0
2016-May-02 06:31N 52°24' E 004°52'0 0.0
2016-May-02 05:28N 52°24' E 004°52'0 0.0
2016-May-02 04:28N 52°24' E 004°52'0 0.0
2016-May-02 03:31N 52°24' E 004°52'0 0.0
2016-May-02 02:28N 52°24' E 004°52'0 0.0
2016-May-02 01:31N 52°24' E 004°52'0 0.0
2016-May-02 00:31N 52°24' E 004°52'0 0.0
2016-May-01 23:31N 52°24' E 004°52'0 0.0
2016-May-01 22:28N 52°24' E 004°52'0 0.0
2016-May-01 21:31N 52°24' E 004°52'0 0.0
2016-May-01 20:28N 52°24' E 004°52'0 0.0
2016-May-01 19:28N 52°24' E 004°52'0 0.0
2016-May-01 18:31N 52°24' E 004°52'0 0.0
2016-May-01 17:31N 52°24' E 004°52'0 0.0
2016-May-01 16:31N 52°24' E 004°52'0 0.0
2016-May-01 15:28N 52°24' E 004°52'0 0.0
2016-May-01 14:28N 52°24' E 004°52'0 0.0
2016-May-01 13:28N 52°24' E 004°52'0 0.0
2016-May-01 12:31N 52°24' E 004°52'0 0.0
2016-May-01 11:31N 52°24' E 004°52'0 0.0
2016-May-01 10:31N 52°24' E 004°52'0 0.0
2016-May-01 09:28N 52°24' E 004°52'0 0.0
2016-May-01 08:28N 52°24' E 004°52'0 0.0
2016-May-01 07:31N 52°24' E 004°52'0 0.0
2016-May-01 06:31N 52°24' E 004°52'0 0.0
2016-May-01 05:28N 52°24' E 004°52'0 0.0
2016-May-01 04:31N 52°24' E 004°52'0 0.0
2016-May-01 03:25N 52°24' E 004°52'0 0.0
2016-May-01 02:31N 52°24' E 004°52'0 0.0
2016-May-01 01:25N 52°24' E 004°52'0 0.0
2016-May-01 00:31N 52°24' E 004°52'0 0.0
2016-Apr-30 23:31N 52°24' E 004°52'0 0.0
2016-Apr-30 22:31N 52°24' E 004°52'0 0.0
2016-Apr-30 21:31N 52°24' E 004°52'0 0.0
2016-Apr-30 20:31N 52°24' E 004°52'0 0.0
2016-Apr-30 19:31N 52°24' E 004°52'0 0.0
2016-Apr-30 18:31N 52°24' E 004°52'0 0.0
2016-Apr-30 17:31N 52°24' E 004°52'0 0.0
2016-Apr-30 16:31N 52°24' E 004°52'0 0.0
2016-Apr-30 15:32N 52°24' E 004°52'0 0.0
2016-Apr-30 14:31N 52°24' E 004°52'1 0.6
2016-Apr-30 13:33N 52°25' E 004°52'9 8.7
2016-Apr-30 12:34N 52°28' E 004°39'4 3.7
2016-Apr-30 11:33N 52°28' E 004°33'6 6.2
2016-Apr-30 10:32N 52°28' E 004°22'67 6.5
2016-Apr-30 00:19N 51°30' E 003°27'7 8.7
2016-Apr-29 23:33N 51°26' E 003°36'1110.3
2016-Apr-29 22:32N 51°22' E 003°51'8 8.1
2016-Apr-29 21:31N 51°24' E 004°04'9 9.0
2016-Apr-29 20:33N 51°20' E 004°16'7 7.4
2016-Apr-29 19:33N 51°14' E 004°23'6 5.9
2016-Apr-29 18:32N 51°09' E 004°20'3 2.8
2016-Apr-29 17:33N 51°06' E 004°19'2 0.1
2016-Apr-28 20:33N 51°05' E 004°21'3 2.6
2016-Apr-28 19:19N 51°07' E 004°19'6 7.5
2016-Apr-28 18:34N 51°12' E 004°23'8 7.5
2016-Apr-28 17:31N 51°19' E 004°16'10 8.7
2016-Apr-28 16:20N 51°25' E 004°03'810.0
2016-Apr-28 15:33N 51°21' E 003°52'1111.1
2016-Apr-28 14:33N 51°26' E 003°36'  
2016-Apr-26 10:25N 58°36' E 005°15'7 8.4
2016-Apr-26 09:34N 58°43' E 005°15'9 8.9
2016-Apr-26 08:34N 58°52' E 005°17'9 9.3
2016-Apr-26 07:34N 59°02' E 005°18'9 9.3
2016-Apr-26 06:33N 59°11' E 005°20'28 9.3
2016-Apr-26 03:33N 59°39' E 005°19'1111.1
2016-Apr-26 02:33N 59°47' E 005°34'  

Dump ship's entire track history